Time;durP1;ratioP1;P1;durP2;ratioP2;P2;SDS_P1;SDS_P2;PMS_P1;PMS_P2;Temp;Humidity;BMP_temperature;BMP_pressure;BME280_temperature;BME280_humidity;BME280_pressure;Samples;Min_cycle;Max_cycle;Signal;HPM_P1;HPM_P2
2023/03/07 00:02:14;;;;;;;6.25;2.47;;;4.10;87.90;;;;;;5066481;28;20082;-76
2023/03/07 00:04:46;;;;;;;5.50;2.33;;;4.20;88.00;;;;;;5086641;28;20687;-76
2023/03/07 00:07:13;;;;;;;6.13;2.03;;;4.20;88.00;;;;;;5082527;28;20055;-77
2023/03/07 00:09:41;;;;;;;4.95;1.52;;;4.20;88.00;;;;;;5085084;28;20056;-76
2023/03/07 00:12:08;;;;;;;6.65;2.00;;;4.20;88.10;;;;;;5089912;28;20044;-77
2023/03/07 00:14:35;;;;;;;4.40;1.40;;;4.20;88.00;;;;;;5079311;28;20491;-76
2023/03/07 00:17:02;;;;;;;4.07;1.27;;;4.20;88.00;;;;;;5064823;28;20048;-76
2023/03/07 00:19:29;;;;;;;3.50;0.70;;;4.20;87.90;;;;;;5072487;28;20052;-77
2023/03/07 00:21:58;;;;;;;3.72;0.80;;;4.20;87.80;;;;;;5087673;28;20047;-76
2023/03/07 00:24:25;;;;;;;3.50;0.85;;;4.20;87.90;;;;;;5089429;28;20068;-77
2023/03/07 00:26:52;;;;;;;3.55;0.80;;;4.20;87.70;;;;;;5069031;28;20164;-77
2023/03/07 00:29:19;;;;;;;3.60;0.70;;;4.30;87.60;;;;;;5069278;28;20503;-77
2023/03/07 00:31:46;;;;;;;3.80;0.37;;;4.30;87.50;;;;;;5064477;28;20052;-77
2023/03/07 00:34:13;;;;;;;2.75;0.60;;;4.30;87.30;;;;;;5052609;28;20044;-77
2023/03/07 00:36:40;;;;;;;3.83;0.73;;;4.30;87.20;;;;;;5061648;28;20505;-77
2023/03/07 00:39:08;;;;;;;1.83;0.40;;;4.30;87.30;;;;;;5079368;28;20143;-77
2023/03/07 00:41:35;;;;;;;3.25;0.55;;;4.30;87.30;;;;;;5088184;28;20498;-77
2023/03/07 00:44:02;;;;;;;4.27;0.37;;;4.30;86.90;;;;;;5089570;28;20067;-77
2023/03/07 00:46:29;;;;;;;2.03;0.13;;;4.30;86.50;;;;;;5059350;28;20128;-77
2023/03/07 00:48:56;;;;;;;1.73;0.20;;;4.30;86.50;;;;;;5068552;28;20048;-77
2023/03/07 00:51:24;;;;;;;1.52;0.22;;;4.30;86.50;;;;;;5078887;27;20076;-77
2023/03/07 00:53:51;;;;;;;2.08;0.20;;;4.30;86.50;;;;;;5071952;28;20049;-77
2023/03/07 00:56:22;;;;;;;2.70;0.27;;;4.30;86.50;;;;;;5072053;28;20052;-76
2023/03/07 00:58:50;;;;;;;2.80;0.30;;;4.30;86.50;;;;;;5071921;28;20048;-76
2023/03/07 01:01:19;;;;;;;3.00;0.20;;;4.20;86.60;;;;;;5056001;28;20053;-77
2023/03/07 01:03:48;;;;;;;4.15;0.20;;;4.20;86.70;;;;;;5084189;28;20548;-77
2023/03/07 01:06:17;;;;;;;4.57;0.40;;;4.20;86.90;;;;;;5071626;28;20554;-76
2023/03/07 01:08:45;;;;;;;4.00;0.30;;;4.20;86.90;;;;;;5066066;28;20063;-77
2023/03/07 01:11:14;;;;;;;2.55;0.20;;;4.20;87.10;;;;;;5097128;27;20099;-77
2023/03/07 01:13:43;;;;;;;2.95;0.20;;;4.20;87.20;;;;;;5052186;28;20663;-77
2023/03/07 01:16:13;;;;;;;3.42;0.30;;;4.20;87.30;;;;;;5055643;28;20087;-77
2023/03/07 01:18:42;;;;;;;1.52;0.20;;;4.30;87.20;;;;;;5068950;28;20065;-77
2023/03/07 01:21:15;;;;;;;2.57;0.40;;;4.30;87.30;;;;;;5064522;28;20659;-77
2023/03/07 01:23:42;;;;;;;4.20;0.55;;;4.30;87.30;;;;;;5080398;28;20055;-77
2023/03/07 01:26:13;;;;;;;4.35;0.65;;;4.20;87.30;;;;;;5065367;28;20052;-77
2023/03/07 01:28:41;;;;;;;4.10;0.60;;;4.30;87.30;;;;;;5070437;28;20052;-77
2023/03/07 01:31:09;;;;;;;5.25;0.60;;;4.30;87.30;;;;;;5113111;27;20045;-77
2023/03/07 01:33:36;;;;;;;3.70;0.20;;;4.30;87.30;;;;;;5062441;28;20056;-77
2023/03/07 01:36:03;;;;;;;3.22;0.55;;;4.30;87.20;;;;;;5112163;27;20077;-77
2023/03/07 01:38:33;;;;;;;3.45;0.40;;;4.30;87.10;;;;;;5069140;28;20064;-77
2023/03/07 01:41:02;;;;;;;3.35;0.40;;;4.30;87.10;;;;;;5067932;28;20418;-76
2023/03/07 01:43:31;;;;;;;3.78;0.50;;;4.30;86.80;;;;;;5066618;28;20437;-77
2023/03/07 01:46:36;;;;;;;4.10;0.40;;;4.30;86.70;;;;;;5071518;28;20053;-77
2023/03/07 01:49:08;;;;;;;2.17;0.20;;;4.20;86.50;;;;;;5069056;28;20430;-77
2023/03/07 01:51:40;;;;;;;3.90;0.43;;;4.20;86.70;;;;;;5068613;28;20132;-76
2023/03/07 01:54:09;;;;;;;2.10;0.28;;;4.20;86.70;;;;;;5070445;28;20041;-77
2023/03/07 01:56:37;;;;;;;4.65;0.77;;;4.20;86.60;;;;;;5061345;28;20056;-76
2023/03/07 01:59:04;;;;;;;3.70;0.43;;;4.20;86.50;;;;;;5085581;28;20106;-77
2023/03/07 02:01:32;;;;;;;3.35;0.28;;;4.10;86.60;;;;;;5077951;28;20045;-77
2023/03/07 02:04:06;;;;;;;4.10;0.50;;;4.10;86.60;;;;;;5085128;28;20084;-76
2023/03/07 02:06:36;;;;;;;3.55;0.55;;;4.10;86.70;;;;;;5063812;28;20567;-77
2023/03/07 02:09:11;;;;;;;4.75;0.65;;;4.10;86.50;;;;;;5082422;28;20057;-76
2023/03/07 02:11:40;;;;;;;3.50;0.40;;;4.10;86.60;;;;;;5062677;28;20537;-77
2023/03/07 02:14:07;;;;;;;2.65;0.10;;;4.10;86.50;;;;;;5061193;28;20447;-77
2023/03/07 02:16:35;;;;;;;3.22;0.40;;;4.00;86.50;;;;;;5077947;28;20045;-77
2023/03/07 02:19:08;;;;;;;6.28;0.45;;;4.00;86.40;;;;;;5058327;28;20060;-77
2023/03/07 02:21:41;;;;;;;7.50;0.70;;;4.00;86.50;;;;;;5075885;28;20085;-77
2023/03/07 02:24:19;;;;;;;5.03;0.33;;;4.00;86.70;;;;;;5078649;28;20061;-77
2023/03/07 02:26:49;;;;;;;5.63;0.50;;;4.00;86.70;;;;;;5056966;28;20537;-77
2023/03/07 02:29:16;;;;;;;5.65;0.45;;;4.00;86.70;;;;;;5066525;28;20153;-77
2023/03/07 02:31:46;;;;;;;7.32;0.55;;;4.00;86.70;;;;;;5066720;28;20046;-77
2023/03/07 02:34:21;;;;;;;4.10;0.70;;;4.00;86.70;;;;;;5078807;28;20052;-77
2023/03/07 02:36:54;;;;;;;5.73;0.60;;;4.00;86.70;;;;;;5056703;28;20056;-77
2023/03/07 02:39:28;;;;;;;5.30;0.50;;;4.00;86.70;;;;;;5067701;28;20490;-77
2023/03/07 02:42:02;;;;;;;3.35;0.55;;;4.00;86.70;;;;;;5072508;28;20328;-77
2023/03/07 02:44:39;;;;;;;5.03;0.45;;;4.00;86.70;;;;;;5090497;27;20053;-77
2023/03/07 02:47:08;;;;;;;3.67;0.43;;;3.90;86.70;;;;;;5059855;28;20128;-77
2023/03/07 02:49:35;;;;;;;3.70;0.30;;;3.90;86.70;;;;;;5064431;28;20133;-77
2023/03/07 02:52:05;;;;;;;4.40;0.50;;;3.90;86.70;;;;;;5061748;28;20049;-77
2023/03/07 02:54:32;;;;;;;4.55;0.45;;;3.90;86.50;;;;;;5070041;28;20064;-77
2023/03/07 02:57:00;;;;;;;3.83;0.30;;;3.90;86.40;;;;;;5070073;28;20110;-77
2023/03/07 02:59:28;;;;;;;5.10;0.52;;;3.90;86.40;;;;;;5064869;28;20056;-77
2023/03/07 03:01:55;;;;;;;4.07;0.40;;;3.90;86.30;;;;;;5082572;28;20052;-77
2023/03/07 03:04:22;;;;;;;6.85;0.85;;;3.90;86.20;;;;;;5059646;28;20058;-76
2023/03/07 03:06:49;;;;;;;4.40;0.70;;;3.90;86.10;;;;;;5080041;28;20575;-76
2023/03/07 03:09:16;;;;;;;3.97;0.30;;;3.90;85.70;;;;;;5068266;28;20264;-77
2023/03/07 03:11:43;;;;;;;6.20;0.75;;;3.90;85.70;;;;;;5067456;28;20163;-76
2023/03/07 03:14:12;;;;;;;7.17;0.50;;;3.90;85.50;;;;;;5086096;28;20053;-77
2023/03/07 03:16:40;;;;;;;7.93;0.60;;;3.80;85.50;;;;;;5061849;28;20573;-77
2023/03/07 03:19:07;;;;;;;5.50;0.50;;;3.80;85.40;;;;;;5070500;28;20052;-77
2023/03/07 03:21:34;;;;;;;5.15;0.40;;;3.80;85.00;;;;;;5074388;28;20064;-77
2023/03/07 03:24:05;;;;;;;7.05;0.40;;;3.80;84.90;;;;;;5083526;28;20111;-77
2023/03/07 03:26:33;;;;;;;5.90;0.40;;;3.80;84.80;;;;;;5084546;28;20102;-76
2023/03/07 03:29:01;;;;;;;4.72;0.40;;;3.80;84.30;;;;;;5078945;28;20161;-77
2023/03/07 03:31:31;;;;;;;8.57;0.60;;;3.80;84.00;;;;;;5096035;27;20295;-77
2023/03/07 03:33:59;;;;;;;7.68;0.60;;;3.70;83.50;;;;;;5068021;28;20060;-77
2023/03/07 03:36:28;;;;;;;4.88;0.30;;;3.70;83.20;;;;;;5054773;28;20139;-76
2023/03/07 03:39:01;;;;;;;3.63;0.40;;;3.70;83.00;;;;;;5063537;28;20068;-77
2023/03/07 03:41:29;;;;;;;7.57;0.73;;;3.70;82.80;;;;;;5072677;28;20502;-76
2023/03/07 03:43:56;;;;;;;3.35;0.28;;;3.70;82.40;;;;;;5099120;27;20075;-77
2023/03/07 03:46:25;;;;;;;2.95;0.30;;;3.70;82.50;;;;;;5099185;27;20469;-77
2023/03/07 03:48:54;;;;;;;6.85;0.30;;;3.70;82.30;;;;;;5085320;28;20186;-76
2023/03/07 03:51:24;;;;;;;3.23;0.20;;;3.60;82.30;;;;;;5068863;28;20373;-76
2023/03/07 03:53:54;;;;;;;4.60;0.32;;;3.70;82.00;;;;;;5085618;28;20048;-77
2023/03/07 03:56:23;;;;;;;5.97;0.55;;;3.70;82.00;;;;;;5064626;28;20127;-76
2023/03/07 03:58:51;;;;;;;5.65;0.30;;;3.70;81.90;;;;;;5069748;28;20475;-77
2023/03/07 04:01:19;;;;;;;4.00;0.35;;;3.70;82.00;;;;;;5086341;28;20136;-76
2023/03/07 04:03:48;;;;;;;6.50;0.40;;;3.60;81.90;;;;;;5064154;28;20080;-76
2023/03/07 04:06:18;;;;;;;4.72;0.30;;;3.60;81.90;;;;;;5071740;28;20613;-76
2023/03/07 04:08:46;;;;;;;6.75;0.45;;;3.60;82.00;;;;;;5084542;28;20150;-77
2023/03/07 04:11:13;;;;;;;4.25;0.30;;;3.60;82.10;;;;;;5085535;28;20103;-76
2023/03/07 04:13:40;;;;;;;4.60;0.55;;;3.60;82.10;;;;;;5068396;28;20056;-76
2023/03/07 04:16:08;;;;;;;3.83;0.50;;;3.60;82.10;;;;;;5071571;28;20549;-77
2023/03/07 04:18:36;;;;;;;8.10;0.45;;;3.60;82.10;;;;;;5088640;28;20720;-76
2023/03/07 04:21:04;;;;;;;4.90;0.45;;;3.60;82.20;;;;;;5086436;28;20099;-76
2023/03/07 04:23:33;;;;;;;3.40;0.20;;;3.60;82.00;;;;;;5067850;28;20049;-77
2023/03/07 04:26:03;;;;;;;5.72;0.40;;;3.60;81.80;;;;;;5077686;28;20476;-77
2023/03/07 04:28:43;;;;;;;4.97;0.30;;;3.60;81.80;;;;;;5067639;28;20584;-77
2023/03/07 04:31:15;;;;;;;4.22;0.30;;;3.60;81.90;;;;;;5086102;28;20087;-77
2023/03/07 04:33:43;;;;;;;5.68;0.57;;;3.60;81.70;;;;;;5069116;28;20135;-77
2023/03/07 04:36:11;;;;;;;8.02;0.60;;;3.50;81.80;;;;;;5082913;28;20312;-76
2023/03/07 04:38:41;;;;;;;3.55;0.30;;;3.50;81.70;;;;;;5065152;28;20132;-77
2023/03/07 04:41:08;;;;;;;5.80;0.50;;;3.50;81.80;;;;;;5071659;28;20098;-77
2023/03/07 04:43:35;;;;;;;2.15;0.20;;;3.50;81.90;;;;;;5083793;28;20156;-77
2023/03/07 04:46:03;;;;;;;4.28;0.40;;;3.50;81.90;;;;;;5071882;28;20098;-76
2023/03/07 04:48:30;;;;;;;6.75;0.50;;;3.50;81.80;;;;;;5082181;28;20044;-76
2023/03/07 04:50:57;;;;;;;6.65;0.52;;;3.50;81.80;;;;;;5082166;28;20048;-76
2023/03/07 04:53:24;;;;;;;3.97;0.30;;;3.50;81.80;;;;;;5094510;27;20056;-77
2023/03/07 04:55:57;;;;;;;6.05;0.38;;;3.50;81.50;;;;;;5093469;27;20045;-76
2023/03/07 04:58:24;;;;;;;4.68;0.70;;;3.50;81.20;;;;;;5063446;28;20047;-76
2023/03/07 05:00:51;;;;;;;5.70;0.52;;;3.50;80.90;;;;;;5083037;28;20111;-76
2023/03/07 05:03:18;;;;;;;4.05;0.32;;;3.50;80.90;;;;;;5075489;28;20136;-76
2023/03/07 05:05:45;;;;;;;5.50;0.67;;;3.50;80.50;;;;;;5087862;28;20051;-76
2023/03/07 05:08:12;;;;;;;3.15;0.50;;;3.50;80.00;;;;;;5065279;28;20060;-76
2023/03/07 05:10:40;;;;;;;4.93;0.30;;;3.50;79.70;;;;;;5081699;28;20055;-76
2023/03/07 05:13:09;;;;;;;5.68;0.60;;;3.50;79.80;;;;;;5079443;28;20072;-75
2023/03/07 05:15:37;;;;;;;5.32;0.55;;;3.50;79.40;;;;;;5068142;28;20680;-76
2023/03/07 05:18:04;;;;;;;3.23;0.57;;;3.50;78.90;;;;;;5067437;28;20045;-76
2023/03/07 05:20:32;;;;;;;4.30;0.57;;;3.60;78.70;;;;;;5073278;28;20045;-76
2023/03/07 05:22:59;;;;;;;4.15;0.60;;;3.50;78.70;;;;;;5069871;28;20122;-76
2023/03/07 05:25:27;;;;;;;3.50;0.47;;;3.60;78.60;;;;;;5074917;28;20064;-76
2023/03/07 05:27:54;;;;;;;5.68;0.30;;;3.60;78.60;;;;;;5074416;28;20123;-75
2023/03/07 05:30:23;;;;;;;5.03;0.50;;;3.60;78.40;;;;;;5067050;28;20055;-76
2023/03/07 05:32:50;;;;;;;9.80;0.40;;;3.60;78.50;;;;;;5088137;28;20542;-76
2023/03/07 05:35:17;;;;;;;4.85;0.50;;;3.60;78.60;;;;;;5069709;28;20102;-76
2023/03/07 05:37:45;;;;;;;3.20;0.47;;;3.60;78.70;;;;;;5087519;28;20049;-76
2023/03/07 05:40:14;;;;;;;7.97;0.40;;;3.60;78.70;;;;;;5086032;28;20056;-77
2023/03/07 05:42:45;;;;;;;6.63;0.40;;;3.60;78.80;;;;;;5065184;28;20051;-76
2023/03/07 05:45:12;;;;;;;2.17;0.13;;;3.60;78.90;;;;;;5071326;28;20045;-76
2023/03/07 05:47:42;;;;;;;8.52;0.60;;;3.60;78.90;;;;;;5066786;28;20717;-76
2023/03/07 05:50:12;;;;;;;5.20;0.30;;;3.60;78.80;;;;;;5066062;28;20521;-76
2023/03/07 05:52:40;;;;;;;1.98;0.28;;;3.60;78.70;;;;;;5060467;28;20139;-76
2023/03/07 05:55:08;;;;;;;1.80;0.23;;;3.60;78.60;;;;;;5064114;28;20052;-76
2023/03/07 05:57:35;;;;;;;5.70;0.40;;;3.60;78.40;;;;;;5064791;28;20204;-76
2023/03/07 06:00:04;;;;;;;5.80;0.55;;;3.60;78.50;;;;;;5064365;28;20533;-76
2023/03/07 06:02:42;;;;;;;1.35;0.15;;;3.60;78.60;;;;;;5079910;28;20044;-76
2023/03/07 06:05:13;;;;;;;5.60;0.70;;;3.60;78.70;;;;;;5082379;28;20247;-75
2023/03/07 06:07:40;;;;;;;3.67;0.10;;;3.60;78.30;;;;;;5059745;28;20704;-76
2023/03/07 06:10:08;;;;;;;2.65;0.32;;;3.60;78.40;;;;;;5083873;28;20135;-76
2023/03/07 06:12:35;;;;;;;4.60;0.50;;;3.60;78.30;;;;;;5066119;28;20063;-76
2023/03/07 06:15:02;;;;;;;4.95;1.05;;;3.60;78.20;;;;;;5063874;28;20049;-76
2023/03/07 06:17:29;;;;;;;5.28;0.50;;;3.60;78.20;;;;;;5075963;28;20135;-76
2023/03/07 06:19:57;;;;;;;6.50;0.40;;;3.60;78.20;;;;;;5079398;28;20068;-76
2023/03/07 06:22:24;;;;;;;4.30;0.57;;;3.60;78.60;;;;;;5077833;28;20056;-76
2023/03/07 06:24:51;;;;;;;4.30;0.38;;;3.60;78.40;;;;;;5083994;28;20409;-76
2023/03/07 06:27:18;;;;;;;7.05;0.50;;;3.60;78.00;;;;;;5082540;28;20048;-76
2023/03/07 06:29:45;;;;;;;3.35;0.30;;;3.60;78.00;;;;;;5061597;28;20056;-76
2023/03/07 06:32:12;;;;;;;3.93;0.20;;;3.50;78.20;;;;;;5086782;28;20055;-76
2023/03/07 06:34:39;;;;;;;3.67;0.63;;;3.50;78.40;;;;;;5079966;28;21054;-75
2023/03/07 06:37:08;;;;;;;3.55;0.20;;;3.50;78.30;;;;;;5092579;28;20048;-77
2023/03/07 06:39:35;;;;;;;3.58;0.40;;;3.50;78.70;;;;;;5083460;28;20659;-77
2023/03/07 06:42:03;;;;;;;2.55;0.20;;;3.40;79.00;;;;;;5083644;28;20048;-76
2023/03/07 06:44:30;;;;;;;3.33;0.47;;;3.30;79.40;;;;;;5085036;28;20668;-77
2023/03/07 06:46:57;;;;;;;3.45;0.40;;;3.30;79.70;;;;;;5081534;28;20057;-77
2023/03/07 06:49:25;;;;;;;6.00;0.40;;;3.30;79.60;;;;;;5066456;28;20063;-77
2023/03/07 06:51:52;;;;;;;6.90;0.60;;;3.30;79.90;;;;;;5061162;28;20059;-76
2023/03/07 06:54:21;;;;;;;6.72;0.65;;;3.30;80.00;;;;;;5062912;28;20114;-76
2023/03/07 06:56:50;;;;;;;6.53;0.50;;;3.30;80.20;;;;;;5090855;27;20073;-76
2023/03/07 06:59:20;;;;;;;4.72;0.30;;;3.30;80.30;;;;;;5064316;28;20053;-76
2023/03/07 07:02:13;;;;;;;2.65;0.38;;;3.30;80.50;;;;;;5067985;28;20479;-76
2023/03/07 07:04:40;;;;;;;4.65;0.35;;;3.30;80.60;;;;;;5067747;28;20053;-76
2023/03/07 07:07:07;;;;;;;0.95;0.10;;;3.30;80.80;;;;;;5066225;28;20048;-76
2023/03/07 07:09:36;;;;;;;2.23;0.20;;;3.30;80.80;;;;;;5065782;28;20044;-76
2023/03/07 07:12:04;;;;;;;2.25;0.22;;;3.20;81.00;;;;;;5085859;28;20044;-76
2023/03/07 07:14:33;;;;;;;4.93;0.40;;;3.20;81.20;;;;;;5062913;28;20048;-76
2023/03/07 07:17:01;;;;;;;7.60;0.30;;;3.30;81.30;;;;;;5083914;28;20053;-76
2023/03/07 07:19:28;;;;;;;8.88;0.65;;;3.30;81.20;;;;;;5072753;28;20058;-75
2023/03/07 07:21:56;;;;;;;5.27;0.57;;;3.30;81.40;;;;;;5079558;28;20087;-77
2023/03/07 07:24:23;;;;;;;4.88;0.30;;;3.30;81.60;;;;;;5067818;28;20048;-76
2023/03/07 07:26:54;;;;;;;6.82;0.47;;;3.30;81.80;;;;;;5067630;28;20597;-76
2023/03/07 07:29:22;;;;;;;5.60;0.40;;;3.30;81.70;;;;;;5090367;27;20507;-76
2023/03/07 07:31:50;;;;;;;9.82;0.60;;;3.30;81.80;;;;;;5058911;28;20132;-76
2023/03/07 07:34:19;;;;;;;7.33;0.50;;;3.30;82.00;;;;;;5083735;28;20053;-76
2023/03/07 07:36:47;;;;;;;7.25;0.60;;;3.30;82.00;;;;;;5084022;28;20045;-76
2023/03/07 07:39:16;;;;;;;3.42;0.32;;;3.30;82.10;;;;;;5067036;28;20122;-76
2023/03/07 07:41:46;;;;;;;6.38;0.50;;;3.30;82.30;;;;;;5065436;28;20048;-75
2023/03/07 07:44:15;;;;;;;5.85;0.65;;;3.30;82.30;;;;;;5064983;28;20535;-75
2023/03/07 07:46:53;;;;;;;3.93;0.47;;;3.40;82.30;;;;;;5082950;28;20060;-76
2023/03/07 07:49:21;;;;;;;6.15;0.60;;;3.40;82.40;;;;;;5071024;28;20167;-76
2023/03/07 07:51:48;;;;;;;7.07;0.70;;;3.40;82.50;;;;;;5109017;27;20052;-76
2023/03/07 07:54:15;;;;;;;2.20;0.20;;;3.40;82.50;;;;;;5065128;28;20076;-75
2023/03/07 07:56:42;;;;;;;6.05;0.55;;;3.50;82.70;;;;;;5081843;28;20052;-75
2023/03/07 07:59:09;;;;;;;6.37;0.90;;;3.50;82.60;;;;;;5065151;28;20503;-76
2023/03/07 08:01:37;;;;;;;4.68;0.32;;;3.50;82.60;;;;;;5106162;27;20052;-76
2023/03/07 08:04:05;;;;;;;5.45;0.60;;;3.50;82.60;;;;;;5094385;27;20519;-76
2023/03/07 08:06:32;;;;;;;6.70;0.57;;;3.50;82.60;;;;;;5063711;28;20198;-77
2023/03/07 08:08:59;;;;;;;1.35;0.17;;;3.50;82.50;;;;;;5112639;27;20053;-76
2023/03/07 08:11:26;;;;;;;3.77;0.30;;;3.50;82.60;;;;;;5096018;27;20833;-77
2023/03/07 08:13:53;;;;;;;7.80;0.68;;;3.50;82.60;;;;;;5082234;28;20070;-76
2023/03/07 08:16:23;;;;;;;4.20;0.50;;;3.50;82.90;;;;;;5084914;28;20076;-77
2023/03/07 08:18:54;;;;;;;1.95;0.30;;;3.40;83.10;;;;;;5083052;28;20965;-78
2023/03/07 08:21:22;;;;;;;5.25;0.60;;;3.40;83.20;;;;;;5086261;28;20063;-78
2023/03/07 08:23:49;;;;;;;5.37;0.30;;;3.30;83.20;;;;;;5067399;28;20640;-77
2023/03/07 08:26:17;;;;;;;3.42;0.43;;;3.30;83.30;;;;;;5086944;28;20609;-77
2023/03/07 08:28:44;;;;;;;5.00;0.75;;;3.30;83.40;;;;;;5081897;28;20100;-78
2023/03/07 08:31:12;;;;;;;5.88;0.63;;;3.30;83.70;;;;;;5083382;28;20052;-77
2023/03/07 08:33:40;;;;;;;4.88;0.40;;;3.30;83.70;;;;;;5085492;28;20155;-76
2023/03/07 08:36:09;;;;;;;3.87;0.40;;;3.30;83.70;;;;;;5080544;28;20053;-76
2023/03/07 08:38:36;;;;;;;6.45;0.52;;;3.30;83.80;;;;;;5081563;28;20057;-77
2023/03/07 08:41:05;;;;;;;5.80;0.60;;;3.30;83.90;;;;;;5086803;28;20057;-75
2023/03/07 08:43:35;;;;;;;4.38;0.70;;;3.30;84.00;;;;;;5086710;28;20159;-76
2023/03/07 08:46:02;;;;;;;7.45;0.90;;;3.30;84.20;;;;;;5084808;28;20159;-75
2023/03/07 08:48:30;;;;;;;8.17;1.00;;;3.30;84.30;;;;;;5082376;28;20059;-77
2023/03/07 08:50:57;;;;;;;4.65;0.70;;;3.30;84.60;;;;;;5087851;28;20123;-74
2023/03/07 08:53:25;;;;;;;5.63;1.13;;;3.30;84.60;;;;;;5083080;28;20152;-76
2023/03/07 08:55:52;;;;;;;6.88;1.13;;;3.40;84.60;;;;;;5087905;28;20597;-74
2023/03/07 08:58:19;;;;;;;5.47;1.30;;;3.40;84.80;;;;;;5090919;28;20098;-76
2023/03/07 09:00:46;;;;;;;6.80;1.00;;;3.50;84.60;;;;;;5090835;28;20071;-76
2023/03/07 09:03:13;;;;;;;3.83;0.65;;;3.50;84.80;;;;;;5085191;28;20081;-76
2023/03/07 09:05:40;;;;;;;6.68;0.93;;;3.50;84.70;;;;;;5082971;28;20131;-76
2023/03/07 09:08:08;;;;;;;3.15;0.63;;;3.50;84.90;;;;;;5083825;27;20133;-76
2023/03/07 09:10:36;;;;;;;5.30;0.80;;;3.50;85.00;;;;;;5083247;28;21026;-76
2023/03/07 09:13:03;;;;;;;10.27;1.33;;;3.60;85.10;;;;;;5080483;28;20073;-76
2023/03/07 09:15:31;;;;;;;7.18;1.20;;;3.60;85.10;;;;;;5090329;27;20052;-75
2023/03/07 09:17:58;;;;;;;6.95;0.80;;;3.60;85.10;;;;;;5077753;28;20135;-76
2023/03/07 09:20:25;;;;;;;4.20;0.40;;;3.60;85.00;;;;;;5085651;28;20098;-75
2023/03/07 09:22:53;;;;;;;7.18;0.80;;;3.60;84.80;;;;;;5087766;28;20130;-76
2023/03/07 09:25:21;;;;;;;7.27;0.50;;;3.70;84.80;;;;;;5086959;28;20049;-74
2023/03/07 09:27:50;;;;;;;2.45;0.38;;;3.70;84.70;;;;;;5064133;28;20045;-76
2023/03/07 09:30:17;;;;;;;2.85;0.30;;;3.80;84.30;;;;;;5080216;28;20071;-75
2023/03/07 09:32:44;;;;;;;3.10;0.20;;;3.80;84.10;;;;;;5084742;28;20068;-75
2023/03/07 09:35:12;;;;;;;3.78;0.40;;;3.80;83.70;;;;;;5089136;28;20057;-75
2023/03/07 09:37:39;;;;;;;2.10;0.20;;;3.80;83.50;;;;;;5087642;28;20467;-75
2023/03/07 09:40:07;;;;;;;3.42;0.32;;;3.90;83.40;;;;;;5091058;27;20052;-75
2023/03/07 09:42:43;;;;;;;4.88;0.38;;;3.90;83.20;;;;;;5086678;28;20119;-75
2023/03/07 09:45:21;;;;;;;2.15;0.22;;;3.90;82.90;;;;;;5071249;28;20068;-75
2023/03/07 09:48:18;;;;;;;3.45;0.50;;;3.90;83.10;;;;;;5085216;28;20067;-75
2023/03/07 09:50:53;;;;;;;3.17;0.17;;;3.90;82.60;;;;;;5079202;28;20142;-74
2023/03/07 09:53:27;;;;;;;3.00;0.30;;;3.90;82.60;;;;;;5080393;28;20156;-74
2023/03/07 09:56:05;;;;;;;1.85;0.22;;;3.90;82.20;;;;;;5066630;28;20090;-75
2023/03/07 09:58:35;;;;;;;2.38;0.40;;;3.90;81.70;;;;;;5075233;28;20045;-75
2023/03/07 10:01:07;;;;;;;3.75;0.50;;;3.90;81.70;;;;;;5077160;28;20135;-77
2023/03/07 10:03:41;;;;;;;3.07;0.40;;;3.90;80.90;;;;;;5084702;28;20601;-74
2023/03/07 10:06:14;;;;;;;3.20;0.30;;;3.90;80.20;;;;;;5095576;27;20142;-75
2023/03/07 10:08:41;;;;;;;2.92;0.28;;;3.70;80.10;;;;;;5111852;27;20068;-74
2023/03/07 10:11:22;;;;;;;1.02;0.20;;;3.50;80.00;;;;;;5086810;28;20132;-75
2023/03/07 10:14:31;;;;;;;3.97;0.40;;;3.40;80.40;;;;;;5086408;28;20040;-75
2023/03/07 10:17:07;;;;;;;5.13;0.50;;;3.30;81.10;;;;;;5016860;28;20042;-75
2023/03/07 10:19:44;;;;;;;3.88;0.30;;;3.20;81.40;;;;;;5066980;28;20080;-75
2023/03/07 10:22:19;;;;;;;2.15;0.28;;;3.20;81.80;;;;;;5110768;27;20048;-76
2023/03/07 10:25:14;;;;;;;5.13;0.40;;;3.20;82.40;;;;;;5081511;28;20572;-76
2023/03/07 10:27:44;;;;;;;3.50;0.40;;;3.20;82.60;;;;;;5068380;28;20067;-75
2023/03/07 10:30:16;;;;;;;2.90;0.83;;;3.20;82.60;;;;;;5075419;28;20055;-75
2023/03/07 10:32:46;;;;;;;4.20;0.30;;;3.20;83.00;;;;;;5067076;28;20483;-74
2023/03/07 10:35:17;;;;;;;3.75;0.30;;;3.30;83.40;;;;;;5084500;28;20148;-73
2023/03/07 10:37:50;;;;;;;3.00;0.30;;;3.30;83.40;;;;;;5076423;28;20055;-73
2023/03/07 10:40:25;;;;;;;4.10;0.60;;;3.30;83.50;;;;;;5074740;28;20055;-73
2023/03/07 10:42:53;;;;;;;4.87;0.20;;;3.30;83.70;;;;;;5085578;28;20083;-73
2023/03/07 10:45:21;;;;;;;3.30;0.20;;;3.40;83.90;;;;;;5082745;28;20124;-73
2023/03/07 10:47:49;;;;;;;2.20;0.20;;;3.50;84.40;;;;;;5084445;27;20137;-74
2023/03/07 10:50:26;;;;;;;5.43;0.40;;;3.50;84.50;;;;;;5077796;28;20578;-73
2023/03/07 10:52:57;;;;;;;4.90;0.47;;;3.50;84.30;;;;;;5082003;28;20048;-73
2023/03/07 10:55:32;;;;;;;1.20;0.20;;;3.60;84.10;;;;;;5088559;28;20912;-73
2023/03/07 10:58:18;;;;;;;4.35;0.43;;;3.60;83.80;;;;;;5092046;28;20072;-73
2023/03/07 11:00:57;;;;;;;3.75;0.47;;;3.60;82.80;;;;;;5083939;28;20071;-73
2023/03/07 11:03:31;;;;;;;4.90;0.57;;;3.70;82.40;;;;;;5083719;28;20549;-74
2023/03/07 11:05:59;;;;;;;3.30;0.40;;;3.70;82.40;;;;;;5091300;28;20684;-74
2023/03/07 11:08:30;;;;;;;0.67;0.00;;;3.70;82.20;;;;;;5109925;27;20054;-74
2023/03/07 11:10:58;;;;;;;5.93;0.60;;;3.70;82.20;;;;;;5089510;28;20052;-74
2023/03/07 11:13:25;;;;;;;5.65;0.50;;;3.70;82.10;;;;;;5082358;28;20052;-74
2023/03/07 11:16:08;;;;;;;2.97;0.30;;;3.80;81.70;;;;;;5081432;28;20048;-74
2023/03/07 11:18:41;;;;;;;3.63;0.40;;;3.90;81.40;;;;;;5083399;28;20057;-74
2023/03/07 11:21:27;;;;;;;4.47;0.40;;;3.90;81.50;;;;;;5099187;27;20076;-75
2023/03/07 11:23:59;;;;;;;0.90;0.13;;;3.90;81.20;;;;;;5083958;28;20053;-73
2023/03/07 11:26:26;;;;;;;3.35;0.30;;;3.90;81.10;;;;;;5083926;28;20630;-74
2023/03/07 11:29:05;;;;;;;4.13;0.45;;;4.00;80.40;;;;;;5082685;28;20052;-73
2023/03/07 11:31:40;;;;;;;6.72;0.88;;;4.00;80.00;;;;;;5078458;28;20052;-74
2023/03/07 11:34:24;;;;;;;3.63;0.33;;;4.10;80.00;;;;;;5077813;28;20084;-74
2023/03/07 11:36:56;;;;;;;1.88;0.20;;;4.00;80.60;;;;;;5086346;28;20139;-73
2023/03/07 11:39:32;;;;;;;1.30;0.10;;;4.00;80.00;;;;;;5080889;28;20040;-73
2023/03/07 11:42:04;;;;;;;1.88;0.10;;;3.90;79.40;;;;;;5085410;28;20052;-73
2023/03/07 11:44:39;;;;;;;3.80;0.20;;;3.90;79.60;;;;;;5082677;28;20524;-74
2023/03/07 11:47:21;;;;;;;1.90;0.30;;;3.80;79.40;;;;;;5093618;28;20048;-73
2023/03/07 11:50:05;;;;;;;2.40;0.30;;;3.70;79.30;;;;;;5085259;28;20159;-74
2023/03/07 11:52:50;;;;;;;3.70;0.40;;;3.50;79.70;;;;;;5095067;28;20060;-73
2023/03/07 11:55:26;;;;;;;2.30;0.20;;;3.50;79.70;;;;;;5119101;27;20620;-73
2023/03/07 11:58:06;;;;;;;4.28;0.38;;;3.30;80.00;;;;;;5092227;28;20419;-74
2023/03/07 12:00:44;;;;;;;5.20;0.40;;;3.30;80.30;;;;;;5090017;28;20048;-73
2023/03/07 12:03:29;;;;;;;4.35;0.32;;;3.20;80.50;;;;;;5093626;28;20341;-73
2023/03/07 12:06:11;;;;;;;3.90;0.50;;;3.10;80.70;;;;;;5098380;28;20055;-73
2023/03/07 12:08:50;;;;;;;4.95;0.50;;;3.10;81.00;;;;;;5086560;28;20060;-73
2023/03/07 12:11:31;;;;;;;4.35;0.38;;;3.20;81.10;;;;;;5092260;27;20149;-73
2023/03/07 12:14:10;;;;;;;3.33;0.20;;;3.10;81.20;;;;;;5087996;28;20170;-73
2023/03/07 12:16:48;;;;;;;3.15;0.47;;;3.10;81.40;;;;;;5109827;27;20076;-73
2023/03/07 12:19:49;;;;;;;6.18;0.40;;;3.10;81.50;;;;;;5072069;28;20103;-74
2023/03/07 12:22:29;;;;;;;5.78;0.70;;;3.10;81.60;;;;;;5086232;28;20059;-73
2023/03/07 12:25:18;;;;;;;5.45;0.50;;;3.10;81.90;;;;;;5085991;28;20184;-73
2023/03/07 12:27:50;;;;;;;5.83;0.57;;;3.10;81.90;;;;;;5111588;27;20052;-73
2023/03/07 12:30:22;;;;;;;2.95;0.50;;;3.20;82.10;;;;;;5083513;27;20148;-73
2023/03/07 12:32:51;;;;;;;4.22;0.52;;;3.20;82.40;;;;;;5081892;28;20128;-73
2023/03/07 12:35:24;;;;;;;2.92;0.30;;;3.30;82.30;;;;;;5084349;28;20174;-73
2023/03/07 12:37:58;;;;;;;6.25;0.95;;;3.30;82.50;;;;;;5066416;28;20132;-73
2023/03/07 12:40:33;;;;;;;12.70;0.90;;;3.30;82.90;;;;;;5079019;28;20584;-73
2023/03/07 12:43:10;;;;;;;3.22;0.40;;;3.30;83.00;;;;;;5111896;27;20620;-74
2023/03/07 12:45:45;;;;;;;4.38;0.70;;;3.30;82.90;;;;;;5111334;27;20127;-74
2023/03/07 12:48:22;;;;;;;6.57;0.75;;;3.30;83.10;;;;;;5083110;28;20435;-73
2023/03/07 12:50:56;;;;;;;4.68;0.60;;;3.40;83.20;;;;;;5083115;28;20052;-73
2023/03/07 12:53:33;;;;;;;3.87;0.50;;;3.50;83.10;;;;;;5069003;28;20053;-73
2023/03/07 12:56:05;;;;;;;4.13;0.30;;;3.50;83.10;;;;;;5086452;28;20133;-73
2023/03/07 12:58:40;;;;;;;5.28;0.57;;;3.60;82.40;;;;;;5066127;28;20049;-73
2023/03/07 13:01:12;;;;;;;4.32;0.45;;;3.60;82.30;;;;;;5118453;27;20045;-73
2023/03/07 13:03:46;;;;;;;5.25;0.90;;;3.70;81.80;;;;;;5079214;28;20531;-73
2023/03/07 13:06:18;;;;;;;5.30;0.77;;;3.70;81.30;;;;;;5088788;28;20776;-73
2023/03/07 13:08:49;;;;;;;3.63;0.50;;;3.90;80.90;;;;;;5075133;28;20080;-73
2023/03/07 13:11:21;;;;;;;4.10;0.43;;;3.90;80.20;;;;;;5086920;28;20057;-73
2023/03/07 13:13:57;;;;;;;3.83;0.47;;;4.00;79.70;;;;;;5084097;28;20048;-73
2023/03/07 13:16:48;;;;;;;3.35;0.50;;;4.00;79.30;;;;;;5085399;28;20045;-74